Terminal Aerodrome Forecast
Issued by NWS Los Angeles, CA

Home | Current Version | Previous Version | Text Only | Print | Product List | Glossary On
Versions: 1 2 3 4 5 6 7 8 9 10 11 12 13 14 15 16 17 18 19 20 21 22 23
000
FTUS46 KLOX 221151
TAFSMX
TAF
KSMX 221151Z 2212/2312 VRB03KT 5SM BR BKN008 BKN020 OVC030
     FM221300 VRB03KT P6SM VCSH BKN008 OVC030
     FM221800 30007KT P6SM VCSH BKN015 OVC040
     FM222100 30015G22KT P6SM SCT035 BKN050
     FM230300 30010KT P6SM BKN025
     FM230700 VRB03KT P6SM OVC015=

USA.gov is the U.S. government's official web portal to all federal, state and local government web resources and services.